Terminal Aerodrome Forecast
Issued by NWS Nashville, TN

Home | Current Version | Previous Version | Text Only | Print | Product List | Glossary On
Versions: 1 2 3 4 5 6 7 8 9 10 11 12 13 14 15 16 17 18 19 20 21 22 23 24 25 26 27
317
FTUS44 KOHX 271900 AAA
TAFBNA
TAF AMD
KBNA 271900Z 2719/2818 18012G18KT P6SM VCSH BKN035
     FM272100 19012G18KT 6SM BR VCTS BKN025CB OVC080
     FM272300 19011KT 4SM TSRA OVC025CB
     FM280200 22006KT P6SM SCT015 OVC040
     FM280900 30005KT 4SM BR OVC015=

USA.gov is the U.S. government's official web portal to all federal, state and local government web resources and services.